Time;durP1;ratioP1;P1;durP2;ratioP2;P2;SDS_P1;SDS_P2;PMS_P1;PMS_P2;Temp;Humidity;BMP_temperature;BMP_pressure;BME280_temperature;BME280_humidity;BME280_pressure;Samples;Min_cycle;Max_cycle;Signal;HPM_P1;HPM_P2
2021/12/23 00:09:14;;;;;;;;;;;;;;;-5.33;79.74;100281.07;434544;1311;142390;-69
2021/12/23 00:19:34;;;;;;;42.10;24.70;;;;;;;-5.47;79.57;100274.60;435561;1307;128130;-70
2021/12/23 00:29:41;;;;;;;43.80;24.40;;;;;;;-5.67;79.47;100261.04;433533;1310;142475;-70
2021/12/23 00:39:47;;;;;;;45.50;24.70;;;;;;;-5.94;79.46;100252.81;434532;1310;144092;-70
2021/12/23 00:49:53;;;;;;;42.10;24.30;;;;;;;-6.15;79.70;100247.44;435211;1311;142020;-70
2021/12/23 01:00:00;;;;;;;38.70;23.60;;;;;;;-6.12;79.96;100244.58;424945;1310;142867;-69
2021/12/23 01:10:06;;;;;;;44.10;24.30;;;;;;;-6.04;79.90;100235.48;434649;1312;141944;-70
2021/12/23 01:20:13;;;;;;;46.80;26.30;;;;;;;-6.19;79.72;100221.14;428021;1308;141731;-69
2021/12/23 01:30:19;;;;;;;60.50;32.70;;;;;;;-6.37;79.89;100206.39;434429;1311;167773;-69
2021/12/23 01:40:25;;;;;;;49.60;26.20;;;;;;;-6.35;80.08;100202.33;435117;1311;142079;-70
2021/12/23 01:50:34;;;;;;;44.20;27.00;;;;;;;-6.22;80.07;100195.02;433888;1311;141884;-69
2021/12/23 02:00:43;;;;;;;52.20;28.40;;;;;;;-6.04;79.95;100173.43;432944;1309;142111;-70
2021/12/23 02:10:49;;;;;;;47.70;27.20;;;;;;;-5.90;79.73;100164.36;435229;1308;142027;-70
2021/12/23 02:20:54;;;;;;;;;;;;;;;-5.82;79.58;100160.05;434128;1312;142712;-69
2021/12/23 02:31:01;;;;;;;51.50;30.70;;;;;;;-5.72;79.55;100140.20;434917;1311;128402;-68
2021/12/23 02:41:07;;;;;;;50.30;29.20;;;;;;;-5.69;79.22;100130.69;434142;1311;144011;-70
2021/12/23 02:51:32;;;;;;;48.40;27.40;;;;;;;-5.62;79.25;100114.73;434544;1310;142087;-69
2021/12/23 03:01:38;;;;;;;46.80;27.20;;;;;;;-5.59;79.01;100094.11;434461;1313;141859;-70
2021/12/23 03:11:44;;;;;;;51.40;29.00;;;;;;;-5.73;78.68;100080.16;423650;1311;142054;-65
2021/12/23 03:21:50;;;;;;;55.80;33.00;;;;;;;-6.00;78.73;100072.38;434644;1310;142714;-66
2021/12/23 03:31:56;;;;;;;60.70;34.50;;;;;;;-6.26;78.77;100055.56;433927;1311;141486;-66
2021/12/23 03:42:01;;;;;;;50.50;31.40;;;;;;;-6.49;78.86;100048.81;433306;1311;142909;-66
2021/12/23 03:52:08;;;;;;;53.10;31.30;;;;;;;-6.66;79.03;100042.79;435146;1308;142543;-66
2021/12/23 04:02:14;;;;;;;53.30;30.30;;;;;;;-6.83;79.10;100023.82;435164;1311;142522;-67
2021/12/23 04:12:21;;;;;;;49.10;31.80;;;;;;;-6.97;79.34;100011.20;431144;1311;144090;-68
2021/12/23 04:22:27;;;;;;;50.20;31.70;;;;;;;-7.04;79.50;99995.96;435122;1311;142483;-66
2021/12/23 04:32:31;;;;;;;;;;;;;;;-7.13;79.59;99982.91;435219;1312;141441;-66
2021/12/23 04:42:37;;;;;;;55.30;30.80;;;;;;;-7.23;79.62;99970.33;423981;1313;128245;-66
2021/12/23 04:52:44;;;;;;;60.80;35.80;;;;;;;-7.36;79.73;99956.02;434420;1310;141854;-67
2021/12/23 05:02:50;;;;;;;56.90;33.30;;;;;;;-7.44;79.94;99951.30;435068;1308;142428;-67
2021/12/23 05:12:56;;;;;;;61.00;35.30;;;;;;;-7.51;79.99;99945.94;434543;1311;199515;-65
2021/12/23 05:23:03;;;;;;;58.50;33.10;;;;;;;-7.55;80.18;99921.23;432746;1312;142145;-66
2021/12/23 05:33:09;;;;;;;59.70;34.00;;;;;;;-7.62;80.14;99903.92;433292;1311;142627;-65
2021/12/23 05:43:15;;;;;;;62.40;35.90;;;;;;;-7.68;80.34;99887.88;433863;1311;142292;-66
2021/12/23 05:53:21;;;;;;;62.40;33.50;;;;;;;-7.70;80.55;99877.13;434713;1311;142329;-65
2021/12/23 06:03:27;;;;;;;62.80;35.20;;;;;;;-7.73;80.59;99871.81;429434;1311;142300;-65
2021/12/23 06:13:32;;;;;;;62.00;35.90;;;;;;;-7.73;80.68;99859.90;435243;1308;142343;-65
2021/12/23 06:23:38;;;;;;;53.70;36.60;;;;;;;-7.70;80.81;99846.52;433142;1311;141827;-65
2021/12/23 06:33:44;;;;;;;58.10;34.40;;;;;;;-7.71;80.75;99847.20;421884;1315;143113;-65
2021/12/23 06:43:50;;;;;;;58.70;35.70;;;;;;;-7.75;80.74;99838.46;429832;1314;143412;-64
2021/12/23 06:53:57;;;;;;;60.40;37.40;;;;;;;-7.75;80.81;99836.09;427946;1310;142392;-65
2021/12/23 07:04:07;;;;;;;54.30;34.20;;;;;;;-7.67;80.89;99830.08;434643;1310;141918;-64
2021/12/23 07:14:13;;;;;;;55.20;34.70;;;;;;;-7.57;80.93;99813.89;431208;1311;142620;-66
2021/12/23 07:24:19;;;;;;;63.70;38.50;;;;;;;-7.40;80.71;99805.27;423946;1311;143658;-66
2021/12/23 07:34:24;;;;;;;60.40;37.90;;;;;;;-7.16;80.56;99793.64;426081;1310;142411;-66
2021/12/23 07:44:29;;;;;;;;;;;;;;;-6.92;80.34;99788.63;434461;1313;141983;-66
2021/12/23 07:54:35;;;;;;;61.70;36.20;;;;;;;-6.56;80.02;99771.59;434896;1313;128441;-66
2021/12/23 08:04:40;;;;;;;60.50;39.40;;;;;;;-6.21;79.76;99763.01;434138;1315;141802;-65
2021/12/23 08:14:46;;;;;;;54.80;34.20;;;;;;;-5.91;79.43;99741.34;434071;1311;141661;-64
2021/12/23 08:25:13;;;;;;;39.00;24.70;;;;;;;-5.57;79.12;99720.19;435378;1311;143325;-62
2021/12/23 08:35:20;;;;;;;52.50;31.20;;;;;;;-5.13;78.83;99689.93;435304;1313;141698;-64
2021/12/23 08:45:27;;;;;;;43.20;27.90;;;;;;;-4.63;78.24;99677.14;434316;1308;193728;-66
2021/12/23 08:55:33;;;;;;;43.50;26.10;;;;;;;-4.07;77.87;99669.36;426125;1313;143204;-68
2021/12/23 09:05:41;;;;;;;44.40;28.20;;;;;;;-3.64;77.23;99660.64;429724;1310;142534;-66
2021/12/23 09:15:47;;;;;;;46.90;28.80;;;;;;;-3.31;76.76;99646.10;434418;1310;142351;-68
2021/12/23 09:25:54;;;;;;;39.00;24.90;;;;;;;-2.94;76.17;99632.81;424565;1311;141540;-59
2021/12/23 09:36:00;;;;;;;27.30;19.10;;;;;;;-2.65;75.77;99614.57;434138;1311;141914;-58
2021/12/23 09:46:06;;;;;;;26.50;15.30;;;;;;;-2.41;75.29;99595.30;434698;1310;142407;-60
2021/12/23 09:56:11;;;;;;;;;;;;;;;-2.11;74.71;99575.59;434681;1310;141750;-62
2021/12/23 10:06:17;;;;;;;26.60;16.90;;;;;;;-2.01;74.34;99560.71;434376;1309;128401;-67
2021/12/23 10:37:36;;;;;;;24.30;17.30;;;;;;;-1.90;73.11;99459.67;434476;1310;142405;-60
2021/12/23 10:47:48;;;;;;;28.20;17.30;;;;;;;-1.92;72.84;99431.39;435036;1310;142754;-61
2021/12/23 10:58:04;;;;;;;22.60;16.50;;;;;;;-1.84;73.10;99418.39;422361;1309;142552;-65
2021/12/23 11:08:21;;;;;;;24.40;15.50;;;;;;;-1.71;72.67;99403.95;434783;1309;147566;-68
2021/12/23 11:29:44;;;;;;;25.10;16.40;;;;;;;-1.76;72.42;99355.80;434286;1308;128811;-62
2021/12/23 11:40:06;;;;;;;29.60;17.80;;;;;;;-1.78;72.46;99321.86;434373;1309;142862;-68
2021/12/23 11:50:19;;;;;;;26.20;16.20;;;;;;;-1.87;72.45;99305.88;434174;1309;142399;-67
2021/12/23 12:00:37;;;;;;;26.20;16.10;;;;;;;-1.78;72.42;99295.77;431997;1309;142012;-66
2021/12/23 12:10:45;;;;;;;28.60;15.90;;;;;;;-1.66;72.32;99271.00;435202;1306;142868;-64
2021/12/23 12:20:53;;;;;;;25.30;17.60;;;;;;;-1.55;71.90;99245.91;423232;1311;142288;-66
2021/12/23 12:31:02;;;;;;;28.30;17.80;;;;;;;-1.55;71.84;99212.61;427116;1310;142019;-63
2021/12/23 12:41:11;;;;;;;26.80;16.80;;;;;;;-1.49;71.78;99184.16;434651;1311;142426;-64
2021/12/23 12:51:26;;;;;;;28.90;19.60;;;;;;;-1.70;71.65;99163.47;433989;1308;142936;-69
2021/12/23 13:01:37;;;;;;;21.40;13.80;;;;;;;-1.99;71.57;99155.80;435206;1310;183036;-60
2021/12/23 13:11:45;;;;;;;22.60;15.20;;;;;;;-2.07;71.72;99147.55;432758;1311;141760;-61
2021/12/23 13:21:54;;;;;;;27.60;16.60;;;;;;;-2.07;71.68;99139.50;433500;1309;143121;-66
2021/12/23 13:32:03;;;;;;;22.60;15.20;;;;;;;-1.98;71.75;99120.95;433894;1311;142566;-65
2021/12/23 13:42:11;;;;;;;24.60;14.60;;;;;;;-2.00;71.62;99106.77;434705;1309;141798;-68
2021/12/23 13:52:23;;;;;;;25.30;16.20;;;;;;;-2.06;71.51;99096.94;434286;1310;142288;-64
2021/12/23 14:02:30;;;;;;;24.10;15.90;;;;;;;-2.16;71.53;99069.02;424455;1308;142001;-60
2021/12/23 14:12:49;;;;;;;26.60;15.80;;;;;;;-2.43;71.70;99059.60;434227;1309;142783;-61
2021/12/23 14:23:13;;;;;;;28.60;17.60;;;;;;;-2.66;71.86;99046.83;434499;1309;142481;-63
2021/12/23 14:33:20;;;;;;;30.40;17.10;;;;;;;-2.84;72.10;99030.36;434870;1309;164572;-62
2021/12/23 14:43:26;;;;;;;29.40;19.80;;;;;;;-2.98;72.32;99010.57;432558;1309;142254;-56
2021/12/23 14:53:32;;;;;;;32.70;19.60;;;;;;;-3.11;72.47;98985.45;435540;1310;141872;-63
2021/12/23 15:03:38;;;;;;;29.50;18.90;;;;;;;-3.20;72.66;98972.27;433645;1309;144747;-63
2021/12/23 15:13:46;;;;;;;21.90;14.10;;;;;;;-3.26;72.80;98961.58;435410;1309;142560;-63
2021/12/23 15:23:51;;;;;;;32.70;18.40;;;;;;;-3.30;72.87;98947.45;430440;1310;142882;-62
2021/12/23 15:33:59;;;;;;;33.60;21.30;;;;;;;-3.30;73.08;98923.98;420678;1308;141326;-63
2021/12/23 15:44:06;;;;;;;35.60;20.80;;;;;;;-3.32;73.08;98889.10;429724;1311;151959;-63
2021/12/23 15:54:12;;;;;;;37.00;20.30;;;;;;;-3.30;73.35;98868.02;421947;1309;141850;-62
2021/12/23 16:04:25;;;;;;;31.60;20.10;;;;;;;-3.28;73.43;98852.23;426541;1309;141260;-63
2021/12/23 16:14:31;;;;;;;34.60;21.30;;;;;;;-3.28;73.56;98831.68;426937;1310;142210;-63
2021/12/23 16:24:39;;;;;;;37.60;21.00;;;;;;;-3.26;73.78;98808.18;421370;1309;142637;-64
2021/12/23 16:34:45;;;;;;;30.70;21.00;;;;;;;-3.23;73.84;98778.02;434295;1311;145675;-62
2021/12/23 16:44:51;;;;;;;27.90;17.40;;;;;;;-3.19;73.83;98758.56;435533;1310;142478;-63
2021/12/23 16:55:03;;;;;;;35.40;21.40;;;;;;;-3.11;73.98;98758.24;433577;1309;141164;-62
2021/12/23 17:05:11;;;;;;;34.70;19.70;;;;;;;-3.04;74.03;98750.58;434241;1311;142380;-63
2021/12/23 17:15:17;;;;;;;36.70;20.90;;;;;;;-2.99;74.05;98737.42;433319;1310;142206;-62
2021/12/23 17:25:23;;;;;;;33.90;21.30;;;;;;;-2.91;74.11;98711.06;435404;1311;142131;-62
2021/12/23 17:35:31;;;;;;;32.30;20.90;;;;;;;-2.87;74.10;98700.67;435572;1309;142050;-63
2021/12/23 17:45:37;;;;;;;33.30;21.40;;;;;;;-2.83;74.22;98680.20;424567;1311;141914;-62
2021/12/23 17:55:45;;;;;;;34.50;20.40;;;;;;;-2.81;74.20;98667.65;418589;1308;142180;-62
2021/12/23 18:05:50;;;;;;;35.70;22.10;;;;;;;-2.82;74.34;98648.66;435348;1309;141551;-63
2021/12/23 18:15:57;;;;;;;47.60;25.10;;;;;;;-2.83;74.44;98632.58;433472;1311;141424;-61
2021/12/23 18:26:08;;;;;;;35.20;21.30;;;;;;;-2.80;74.51;98628.58;434489;1309;143001;-61
2021/12/23 18:36:21;;;;;;;34.40;22.20;;;;;;;-2.73;74.62;98619.82;434098;1311;143740;-61
2021/12/23 18:46:28;;;;;;;31.00;20.70;;;;;;;-2.61;74.42;98596.06;434621;1306;141635;-61
2021/12/23 18:56:34;;;;;;;36.80;21.90;;;;;;;-2.56;74.39;98574.50;427594;1309;142564;-65
2021/12/23 19:06:44;;;;;;;34.50;22.80;;;;;;;-2.53;74.45;98548.20;433261;1309;142509;-64
2021/12/23 19:16:50;;;;;;;31.80;22.10;;;;;;;-2.46;74.37;98523.66;434212;1310;141965;-70
2021/12/23 19:26:56;;;;;;;34.70;23.50;;;;;;;-2.43;74.38;98504.21;428576;1309;142593;-69
2021/12/23 19:37:02;;;;;;;28.60;18.90;;;;;;;-2.39;74.50;98492.09;427093;1311;142356;-64
2021/12/23 19:47:08;;;;;;;36.40;22.00;;;;;;;-2.37;74.48;98480.55;435511;1308;141279;-61
2021/12/23 19:57:14;;;;;;;33.40;21.10;;;;;;;-2.31;74.50;98458.78;430199;1311;142751;-61
2021/12/23 20:07:22;;;;;;;35.60;21.50;;;;;;;-2.24;74.42;98435.29;424534;1309;141430;-68
2021/12/23 20:17:28;;;;;;;29.20;20.10;;;;;;;-2.19;74.60;98421.76;421756;1309;142151;-63
2021/12/23 20:27:34;;;;;;;33.20;21.40;;;;;;;-2.18;74.78;98404.42;432996;1311;141592;-68
2021/12/23 20:37:40;;;;;;;31.70;20.80;;;;;;;-2.15;75.09;98379.08;430988;1309;141870;-62
2021/12/23 20:47:46;;;;;;;35.70;23.00;;;;;;;-2.12;75.81;98355.34;432122;1311;141553;-65
2021/12/23 20:57:53;;;;;;;45.10;25.20;;;;;;;-2.15;76.76;98331.60;434854;1306;177793;-65
2021/12/23 21:07:57;;;;;;;;;;;;;;;-2.20;77.51;98312.91;435732;1309;141701;-61
2021/12/23 21:18:05;;;;;;;33.80;22.60;;;;;;;-2.29;78.35;98286.42;434774;1310;129385;-60
2021/12/23 21:28:11;;;;;;;43.50;28.20;;;;;;;-2.34;78.71;98266.56;435262;1310;142239;-61
2021/12/23 21:38:17;;;;;;;37.30;26.20;;;;;;;-2.39;79.12;98247.70;435797;1309;142762;-62
2021/12/23 21:48:23;;;;;;;33.50;24.20;;;;;;;-2.44;79.40;98220.77;433475;1306;142546;-61
2021/12/23 21:58:29;;;;;;;36.90;25.70;;;;;;;-2.46;79.76;98191.52;433962;1310;143742;-61
2021/12/23 22:08:34;;;;;;;38.30;24.70;;;;;;;-2.51;79.96;98164.63;435583;1309;143794;-62
2021/12/23 22:18:40;;;;;;;39.60;26.60;;;;;;;-2.55;80.14;98128.25;435089;1310;142368;-61
2021/12/23 22:28:46;;;;;;;39.90;26.30;;;;;;;-2.54;80.30;98099.95;435836;1308;142689;-62
2021/12/23 22:38:52;;;;;;;46.90;28.00;;;;;;;-2.55;80.25;98078.73;435759;1312;141950;-61
2021/12/23 22:48:58;;;;;;;45.20;27.00;;;;;;;-2.56;80.47;98060.24;435604;1309;142324;-61
2021/12/23 22:59:04;;;;;;;37.90;24.60;;;;;;;-2.57;80.59;98041.10;435758;1310;142812;-61
2021/12/23 23:09:09;;;;;;;35.50;22.40;;;;;;;-2.57;80.79;98016.95;431867;1309;142000;-61
2021/12/23 23:19:17;;;;;;;38.30;25.10;;;;;;;-2.57;80.98;98007.69;431429;1312;142287;-60
2021/12/23 23:40:03;;;;;;;34.20;23.30;;;;;;;-2.66;81.41;97991.06;434390;1311;142262;-62
2021/12/23 23:50:10;;;;;;;33.60;22.60;;;;;;;-2.68;81.69;97974.35;431839;1312;142112;-61
